Time;durP1;ratioP1;P1;durP2;ratioP2;P2;SDS_P1;SDS_P2;PMS_P1;PMS_P2;Temp;Humidity;BMP_temperature;BMP_pressure;BME280_temperature;BME280_humidity;BME280_pressure;Samples;Min_cycle;Max_cycle;Signal;HPM_P1;HPM_P2
2024/01/30 00:02:23;;;;;;;4.63;2.40;;;;;;;13.19;29.26;98091.78;5052771;28;20378;-28
2024/01/30 00:04:50;;;;;;;2.97;1.95;;;;;;;13.19;29.19;98094.50;5052784;28;20021;-28
2024/01/30 00:07:15;;;;;;;3.63;2.42;;;;;;;13.06;29.53;98093.44;5053030;28;20017;-28
2024/01/30 00:09:42;;;;;;;4.43;2.17;;;;;;;13.16;29.33;98087.13;5055332;28;20025;-28
2024/01/30 00:12:07;;;;;;;3.67;2.60;;;;;;;13.25;29.14;98085.50;5056961;28;20089;-29
2024/01/30 00:14:33;;;;;;;3.55;2.25;;;;;;;13.14;29.66;98084.00;5057003;28;20520;-28
2024/01/30 00:16:58;;;;;;;4.05;2.42;;;;;;;13.30;29.23;98087.78;5057707;28;20423;-27
2024/01/30 00:19:24;;;;;;;4.72;2.40;;;;;;;13.09;29.72;98087.97;5056853;28;20029;-27
2024/01/30 00:21:49;;;;;;;4.72;2.30;;;;;;;13.24;29.19;98086.66;5057011;28;20108;-27
2024/01/30 00:24:15;;;;;;;4.03;2.38;;;;;;;13.00;29.08;98084.13;5056700;28;20021;-27
2024/01/30 00:26:40;;;;;;;4.65;2.53;;;;;;;13.26;29.21;98089.75;5056855;28;20469;-27
2024/01/30 00:29:06;;;;;;;4.63;2.53;;;;;;;13.16;29.35;98079.75;5056769;28;20443;-28
2024/01/30 00:31:31;;;;;;;3.42;2.42;;;;;;;13.14;29.38;98092.19;5056596;28;20032;-28
2024/01/30 00:33:57;;;;;;;4.20;2.40;;;;;;;13.02;28.85;98087.22;5064554;28;20017;-27
2024/01/30 00:36:22;;;;;;;3.60;2.10;;;;;;;13.18;28.89;98079.34;5042721;28;20021;-28
2024/01/30 00:38:48;;;;;;;2.78;2.08;;;;;;;13.14;29.13;98084.81;5060508;28;20028;-28
2024/01/30 00:41:13;;;;;;;3.53;2.15;;;;;;;13.28;28.78;98079.25;5056512;28;20041;-28
2024/01/30 00:43:39;;;;;;;3.85;2.20;;;;;;;13.12;28.88;98081.69;5056043;28;20025;-27
2024/01/30 00:46:04;;;;;;;6.10;2.00;;;;;;;12.94;28.92;98084.56;5056460;28;20514;-28
2024/01/30 00:48:30;;;;;;;4.43;2.30;;;;;;;13.19;28.81;98075.44;5056524;28;20065;-27
2024/01/30 00:50:55;;;;;;;3.55;2.08;;;;;;;13.20;28.66;98077.00;5056638;28;20108;-27
2024/01/30 00:53:21;;;;;;;4.82;1.83;;;;;;;13.22;28.50;98085.53;5056245;28;20476;-28
2024/01/30 00:55:46;;;;;;;5.68;2.00;;;;;;;13.14;28.24;98084.81;5056090;28;20108;-28
2024/01/30 00:58:12;;;;;;;2.30;1.73;;;;;;;13.06;28.37;98091.47;5056046;28;20052;-27
2024/01/30 01:00:37;;;;;;;3.33;1.90;;;;;;;12.95;28.60;98088.06;5056128;28;20081;-27
2024/01/30 01:03:03;;;;;;;3.60;2.17;;;;;;;13.09;28.50;98085.25;5062984;28;20044;-27
2024/01/30 01:05:29;;;;;;;2.97;1.80;;;;;;;12.89;28.51;98084.22;5056260;28;20037;-28
2024/01/30 01:07:54;;;;;;;3.63;1.90;;;;;;;12.97;28.88;98087.69;5055903;28;20027;-27
2024/01/30 01:10:20;;;;;;;3.50;1.67;;;;;;;13.11;28.17;98082.09;5056263;28;20035;-27
2024/01/30 01:12:46;;;;;;;2.70;2.00;;;;;;;13.20;27.84;98074.28;5055876;28;20021;-28
2024/01/30 01:15:11;;;;;;;3.42;2.03;;;;;;;13.07;28.19;98073.19;5056403;28;20021;-27
2024/01/30 01:17:40;;;;;;;3.55;1.90;;;;;;;13.18;27.88;98074.66;5055621;28;20027;-27
2024/01/30 01:20:07;;;;;;;3.38;2.13;;;;;;;13.07;28.22;98078.63;5054940;28;20029;-28
2024/01/30 01:22:32;;;;;;;3.65;1.80;;;;;;;13.04;28.15;98076.72;5055757;28;20064;-27
2024/01/30 01:24:59;;;;;;;4.95;1.85;;;;;;;13.01;28.11;98075.56;5055785;28;20056;-27
2024/01/30 01:27:25;;;;;;;3.05;1.90;;;;;;;12.89;28.74;98076.06;5056168;28;20028;-28
2024/01/30 01:29:51;;;;;;;3.92;2.00;;;;;;;13.01;28.50;98066.63;5055591;28;20025;-28
2024/01/30 01:32:17;;;;;;;3.65;1.85;;;;;;;13.07;28.22;98062.28;5055299;28;20029;-28
2024/01/30 01:34:42;;;;;;;3.50;2.33;;;;;;;12.84;28.50;98065.59;5056324;28;20021;-29
2024/01/30 01:37:08;;;;;;;3.08;1.98;;;;;;;12.82;28.56;98057.06;5056104;28;20032;-27
2024/01/30 01:39:34;;;;;;;3.58;2.20;;;;;;;12.66;28.66;98054.06;5061570;28;20028;-27
2024/01/30 01:41:59;;;;;;;3.25;1.92;;;;;;;12.82;28.50;98049.66;5055356;28;20028;-28
2024/01/30 01:44:25;;;;;;;3.15;2.15;;;;;;;12.75;28.75;98051.66;5055277;28;20024;-28
2024/01/30 01:46:52;;;;;;;2.90;1.80;;;;;;;12.79;28.56;98041.53;5055162;28;20024;-27
2024/01/30 01:49:19;;;;;;;5.10;2.10;;;;;;;12.95;28.91;98049.94;5055399;28;20031;-28
2024/01/30 01:51:45;;;;;;;3.80;2.00;;;;;;;12.78;28.78;98050.84;5059970;28;20063;-28
2024/01/30 01:54:11;;;;;;;3.22;2.13;;;;;;;12.95;28.67;98052.66;5040372;28;20369;-27
2024/01/30 01:56:38;;;;;;;3.67;2.20;;;;;;;12.80;28.64;98045.78;5061982;28;20025;-28
2024/01/30 01:59:08;;;;;;;3.83;2.25;;;;;;;12.81;28.82;98045.41;5055005;28;20415;-27
2024/01/30 02:01:34;;;;;;;6.60;2.22;;;;;;;12.55;28.85;98054.16;5054870;28;20067;-28
2024/01/30 02:04:00;;;;;;;3.58;2.22;;;;;;;12.68;28.98;98043.56;5054835;28;20116;-28
2024/01/30 02:06:26;;;;;;;3.55;2.20;;;;;;;12.91;28.99;98041.03;5054388;28;20056;-27
2024/01/30 02:08:52;;;;;;;4.53;1.90;;;;;;;12.73;29.26;98038.47;5061947;28;20051;-28
2024/01/30 02:11:18;;;;;;;5.13;2.15;;;;;;;12.64;29.08;98042.78;5062252;28;20044;-28
2024/01/30 02:13:43;;;;;;;4.35;2.70;;;;;;;12.59;29.33;98044.03;5054822;28;20013;-28
2024/01/30 02:16:10;;;;;;;3.17;2.03;;;;;;;12.83;28.64;98042.28;5055234;28;20020;-28
2024/01/30 02:18:35;;;;;;;2.65;1.80;;;;;;;12.90;28.49;98031.31;5054234;28;20098;-27
2024/01/30 02:21:04;;;;;;;2.95;1.70;;;;;;;12.73;29.23;98033.03;5054623;28;20468;-28
2024/01/30 02:23:30;;;;;;;4.30;1.73;;;;;;;12.80;28.59;98037.63;5054630;28;20028;-28
2024/01/30 02:25:56;;;;;;;2.67;1.70;;;;;;;12.62;28.24;98032.31;5054602;28;20029;-28
2024/01/30 02:28:21;;;;;;;2.70;1.63;;;;;;;12.64;28.42;98040.06;5054299;28;20017;-28
2024/01/30 02:30:47;;;;;;;2.58;1.40;;;;;;;12.58;28.75;98039.75;5054440;28;20028;-28
2024/01/30 02:33:13;;;;;;;2.53;1.65;;;;;;;12.66;28.84;98038.50;5054225;28;20039;-28
2024/01/30 02:35:38;;;;;;;2.65;1.60;;;;;;;12.74;28.44;98034.53;5054032;28;20522;-28
2024/01/30 02:38:04;;;;;;;2.42;1.95;;;;;;;12.70;28.76;98027.59;5054373;28;20020;-27
2024/01/30 02:40:30;;;;;;;2.90;1.58;;;;;;;12.66;28.71;98032.28;5054375;28;20103;-29
2024/01/30 02:42:56;;;;;;;2.58;1.58;;;;;;;12.62;28.60;98036.97;5047426;28;20044;-28
2024/01/30 02:45:22;;;;;;;3.80;1.67;;;;;;;12.66;28.42;98048.63;5054061;28;20485;-27
2024/01/30 02:47:47;;;;;;;3.28;1.92;;;;;;;12.63;28.54;98054.84;5053888;28;20031;-28
2024/01/30 02:50:14;;;;;;;5.30;1.60;;;;;;;12.66;28.21;98043.94;5053921;28;20016;-29
2024/01/30 02:52:40;;;;;;;2.85;1.58;;;;;;;12.57;28.36;98046.38;5054336;28;20416;-28
2024/01/30 02:55:06;;;;;;;3.03;1.60;;;;;;;12.61;28.79;98043.63;5053838;28;20096;-28
2024/01/30 02:57:32;;;;;;;2.70;1.42;;;;;;;12.53;28.72;98040.94;5043407;28;20082;-28
2024/01/30 02:59:57;;;;;;;2.67;1.33;;;;;;;12.61;28.12;98040.91;5061191;28;20021;-28
2024/01/30 03:02:23;;;;;;;2.53;1.50;;;;;;;12.77;27.73;98041.13;5053801;28;20382;-29
2024/01/30 03:04:48;;;;;;;3.13;1.30;;;;;;;12.67;28.43;98042.78;5053358;28;20040;-28
2024/01/30 03:07:14;;;;;;;3.58;1.60;;;;;;;12.66;27.92;98032.28;5053901;28;20025;-28
2024/01/30 03:09:42;;;;;;;3.20;1.60;;;;;;;12.89;27.61;98038.69;5060909;28;20012;-28
2024/01/30 03:12:08;;;;;;;2.67;1.65;;;;;;;12.66;27.72;98043.19;5053895;28;20013;-28
2024/01/30 03:14:33;;;;;;;3.10;1.30;;;;;;;12.52;27.83;98030.44;5053723;28;20361;-28
2024/01/30 03:16:59;;;;;;;2.83;1.50;;;;;;;12.47;27.94;98039.06;5054116;28;20017;-27
2024/01/30 03:19:24;;;;;;;2.47;1.60;;;;;;;12.65;27.88;98036.97;5053622;28;20013;-28
2024/01/30 03:21:51;;;;;;;2.35;1.58;;;;;;;12.38;27.97;98033.25;5053518;28;20430;-28
2024/01/30 03:24:17;;;;;;;3.00;1.42;;;;;;;12.54;27.73;98037.03;5053286;28;20029;-29
2024/01/30 03:26:42;;;;;;;1.65;1.42;;;;;;;12.67;27.73;98036.56;5053735;28;20092;-28
2024/01/30 03:29:08;;;;;;;2.03;1.50;;;;;;;12.58;27.83;98034.31;5053799;28;20032;-29
2024/01/30 03:31:33;;;;;;;2.67;1.58;;;;;;;12.58;27.63;98032.34;5053486;28;20021;-28
2024/01/30 03:33:59;;;;;;;3.05;1.55;;;;;;;12.50;27.88;98038.22;5053451;28;20511;-28
2024/01/30 03:36:24;;;;;;;3.60;1.58;;;;;;;12.50;27.90;98041.72;5053439;28;20376;-27
2024/01/30 03:38:50;;;;;;;3.05;1.50;;;;;;;12.42;27.92;98029.34;5053495;28;20468;-29
2024/01/30 03:41:15;;;;;;;2.45;1.60;;;;;;;12.66;27.30;98033.06;5053349;28;20060;-29
2024/01/30 03:43:41;;;;;;;2.03;1.52;;;;;;;12.65;27.21;98030.75;5054089;28;20016;-28
2024/01/30 03:46:07;;;;;;;4.55;1.55;;;;;;;12.64;27.18;98035.41;5057686;28;20024;-28
2024/01/30 03:48:32;;;;;;;2.50;1.67;;;;;;;12.48;27.31;98033.22;5057420;28;20031;-28
2024/01/30 03:50:58;;;;;;;3.67;1.77;;;;;;;12.44;27.56;98032.44;5057478;28;20449;-28
2024/01/30 03:53:23;;;;;;;2.38;1.40;;;;;;;12.70;27.50;98039.25;5056911;28;20066;-28
2024/01/30 03:55:49;;;;;;;2.08;1.30;;;;;;;12.48;27.03;98035.94;5057340;28;20032;-28
2024/01/30 03:58:14;;;;;;;2.33;1.48;;;;;;;12.54;27.21;98037.03;5057954;28;20032;-28
2024/01/30 04:00:40;;;;;;;2.55;1.58;;;;;;;12.67;27.35;98036.56;5055787;28;20028;-29
2024/01/30 04:03:06;;;;;;;3.08;1.50;;;;;;;12.29;27.49;98041.09;5057016;28;20041;-28
2024/01/30 04:05:32;;;;;;;2.92;1.63;;;;;;;12.35;27.15;98032.13;5057067;28;20029;-28
2024/01/30 04:07:57;;;;;;;6.13;1.80;;;;;;;12.24;27.73;98037.63;5056961;28;20040;-28
2024/01/30 04:10:24;;;;;;;3.42;1.60;;;;;;;12.33;27.09;98037.19;5056875;28;20035;-28
2024/01/30 04:12:50;;;;;;;2.58;1.42;;;;;;;12.47;26.91;98033.59;5057144;28;20031;-28
2024/01/30 04:15:16;;;;;;;2.75;1.60;;;;;;;12.43;27.17;98036.34;5057483;28;20017;-28
2024/01/30 04:17:42;;;;;;;2.30;1.50;;;;;;;12.30;26.99;98040.72;5064047;28;20020;-28
2024/01/30 04:20:08;;;;;;;2.60;1.38;;;;;;;12.42;27.56;98037.50;5056735;28;20021;-29
2024/01/30 04:22:33;;;;;;;2.63;1.45;;;;;;;12.36;27.07;98041.84;5056943;28;20023;-29
2024/01/30 04:24:58;;;;;;;1.98;1.38;;;;;;;12.46;27.10;98041.00;5056558;28;20032;-28
2024/01/30 04:27:24;;;;;;;1.95;1.25;;;;;;;12.38;26.85;98047.63;5056652;28;20099;-28
2024/01/30 04:29:49;;;;;;;3.20;1.40;;;;;;;12.22;26.82;98042.72;5056657;28;20029;-28
2024/01/30 04:32:15;;;;;;;1.90;1.30;;;;;;;12.22;26.77;98037.25;5057043;28;20032;-30
2024/01/30 04:34:40;;;;;;;2.00;1.40;;;;;;;12.26;26.95;98048.09;5064053;28;20009;-28
2024/01/30 04:37:06;;;;;;;2.00;1.02;;;;;;;12.34;27.06;98037.97;5056596;28;20025;-28
2024/01/30 04:39:33;;;;;;;2.33;1.33;;;;;;;12.34;27.04;98029.81;5056583;28;20052;-28
2024/01/30 04:41:59;;;;;;;1.98;1.40;;;;;;;12.22;26.88;98039.22;5056490;28;20024;-29
2024/01/30 04:44:24;;;;;;;2.47;1.48;;;;;;;12.27;26.97;98038.78;5056348;28;20024;-29
2024/01/30 04:46:50;;;;;;;2.92;1.08;;;;;;;12.24;26.88;98040.34;5056557;28;20025;-28
2024/01/30 04:49:16;;;;;;;3.25;1.20;;;;;;;12.32;26.74;98041.09;5056676;28;20491;-29
2024/01/30 04:51:41;;;;;;;3.20;1.27;;;;;;;12.13;27.35;98036.13;5056180;28;20040;-28
2024/01/30 04:54:08;;;;;;;2.08;1.27;;;;;;;12.17;27.14;98029.50;5056025;28;20021;-28
2024/01/30 04:56:34;;;;;;;2.20;1.20;;;;;;;12.21;26.93;98035.72;5056601;28;20037;-28
2024/01/30 04:59:00;;;;;;;1.55;1.25;;;;;;;12.19;26.98;98038.06;5056224;28;20029;-28
2024/01/30 05:01:25;;;;;;;2.75;1.30;;;;;;;12.17;27.06;98039.63;5055889;28;20396;-28
2024/01/30 05:03:51;;;;;;;3.22;1.13;;;;;;;12.12;26.79;98042.75;5056257;28;20024;-28
2024/01/30 05:06:29;;;;;;;2.60;1.45;;;;;;;12.24;27.06;98040.34;5056347;28;20021;-28
2024/01/30 05:08:55;;;;;;;1.40;1.00;;;;;;;12.30;26.73;98043.44;5055846;28;20040;-28
2024/01/30 05:11:21;;;;;;;1.55;1.20;;;;;;;12.19;27.08;98042.72;5056221;28;20021;-28
2024/01/30 05:13:46;;;;;;;1.75;1.10;;;;;;;12.27;27.13;98055.09;5055955;28;20048;-30
2024/01/30 05:16:11;;;;;;;6.60;3.95;;;;;;;12.19;26.75;98043.50;5056473;28;20021;-28
2024/01/30 05:18:37;;;;;;;65.93;28.77;;;;;;;12.34;26.51;98049.63;5055678;28;20021;-28
2024/01/30 05:21:03;;;;;;;89.43;40.13;;;;;;;12.18;26.89;98050.09;5056306;28;20465;-28
2024/01/30 05:23:29;;;;;;;82.60;38.65;;;;;;;12.28;27.23;98045.75;5062845;28;20020;-29
2024/01/30 05:25:54;;;;;;;79.78;38.97;;;;;;;12.24;27.21;98045.78;5055672;28;20389;-28
2024/01/30 05:28:19;;;;;;;114.28;49.75;;;;;;;12.30;26.89;98046.16;5055637;28;20052;-28
2024/01/30 05:30:45;;;;;;;97.05;44.80;;;;;;;12.22;26.84;98047.38;5055485;28;20029;-28
2024/01/30 05:33:12;;;;;;;75.70;37.15;;;;;;;12.31;26.80;98050.41;5055262;28;20027;-28
2024/01/30 05:35:37;;;;;;;54.75;27.58;;;;;;;12.26;26.93;98048.09;5055752;28;20016;-29
2024/01/30 05:38:04;;;;;;;35.13;16.95;;;;;;;12.11;26.93;98046.66;5055180;28;20519;-30
2024/01/30 05:40:30;;;;;;;21.83;11.15;;;;;;;12.12;27.20;98051.69;5062312;28;20380;-28
2024/01/30 05:42:56;;;;;;;16.38;8.88;;;;;;;12.15;27.23;98055.56;5055232;28;20494;-29
2024/01/30 05:45:23;;;;;;;14.25;7.22;;;;;;;12.16;27.14;98051.66;5055326;28;20123;-29
2024/01/30 05:47:48;;;;;;;9.48;4.85;;;;;;;12.06;27.50;98050.56;5055305;28;20083;-29
2024/01/30 05:50:14;;;;;;;5.88;3.58;;;;;;;12.22;27.23;98052.81;5062252;28;20024;-28
2024/01/30 05:52:39;;;;;;;5.15;3.00;;;;;;;12.12;27.36;98054.41;5062714;28;20028;-28
2024/01/30 05:55:05;;;;;;;5.90;3.30;;;;;;;12.23;27.10;98054.34;5055235;28;20029;-29
2024/01/30 05:57:31;;;;;;;5.68;3.47;;;;;;;12.15;27.51;98047.41;5055519;28;20103;-28
2024/01/30 05:59:56;;;;;;;10.68;6.22;;;;;;;12.12;27.53;98061.78;5054829;28;20025;-28
2024/01/30 06:02:22;;;;;;;25.83;10.73;;;;;;;12.14;27.31;98056.72;5054672;28;20053;-28
2024/01/30 06:04:47;;;;;;;32.97;13.07;;;;;;;12.13;27.19;98060.59;5055200;28;20035;-28
2024/01/30 06:07:13;;;;;;;33.55;13.63;;;;;;;12.21;27.11;98060.19;5054391;28;20504;-30
2024/01/30 06:09:38;;;;;;;25.02;8.77;;;;;;;12.18;27.43;98058.25;5055245;28;20021;-28
2024/01/30 06:12:05;;;;;;;10.77;5.03;;;;;;;12.19;27.06;98057.09;5055214;28;20395;-30
2024/01/30 06:14:30;;;;;;;8.40;3.15;;;;;;;12.02;27.04;98060.66;5054466;28;20023;-28
2024/01/30 06:16:56;;;;;;;5.10;2.45;;;;;;;12.08;26.93;98067.25;5055586;28;20116;-28
2024/01/30 06:19:21;;;;;;;5.65;2.08;;;;;;;12.09;26.99;98065.31;5054421;28;20017;-28
2024/01/30 06:21:47;;;;;;;3.03;1.80;;;;;;;12.11;27.40;98062.97;5054925;28;20024;-28
2024/01/30 06:24:12;;;;;;;4.80;1.80;;;;;;;12.09;27.16;98071.53;5054542;28;20033;-28
2024/01/30 06:26:38;;;;;;;2.95;1.63;;;;;;;12.26;26.64;98075.31;5036409;28;20163;-28
2024/01/30 06:29:03;;;;;;;15.05;6.32;;;;;;;12.17;27.19;98069.53;5054377;28;20028;-28
2024/01/30 06:31:29;;;;;;;20.13;10.05;;;;;;;12.09;26.98;98071.53;5050931;28;20051;-28
2024/01/30 06:33:54;;;;;;;19.13;8.68;;;;;;;12.21;27.06;98060.19;5054241;28;20025;-29
2024/01/30 06:36:19;;;;;;;8.95;5.10;;;;;;;11.97;27.15;98066.53;5054098;28;20035;-28
2024/01/30 06:38:45;;;;;;;6.20;3.33;;;;;;;12.05;27.49;98069.97;5054644;28;20020;-29
2024/01/30 06:41:10;;;;;;;9.23;3.70;;;;;;;12.06;27.14;98072.31;5054536;28;20023;-28
2024/01/30 06:43:36;;;;;;;3.90;2.30;;;;;;;11.92;27.38;98066.16;5050711;28;20040;-28
2024/01/30 06:46:01;;;;;;;5.82;2.65;;;;;;;12.14;26.92;98078.47;5054028;28;20025;-28
2024/01/30 06:48:27;;;;;;;5.05;2.30;;;;;;;12.02;27.25;98081.66;5053899;28;20017;-28
2024/01/30 06:50:57;;;;;;;3.85;1.77;;;;;;;12.12;27.18;98078.09;5053879;28;20444;-28
2024/01/30 06:53:23;;;;;;;6.15;2.33;;;;;;;12.01;27.34;98077.38;5054894;28;20048;-28
2024/01/30 06:55:48;;;;;;;3.47;2.03;;;;;;;11.95;27.27;98076.25;5060187;28;20067;-28
2024/01/30 06:58:14;;;;;;;3.63;1.92;;;;;;;12.08;27.20;98086.28;5054029;28;20024;-30
2024/01/30 07:00:39;;;;;;;6.13;2.97;;;;;;;12.07;27.13;98075.81;5053686;28;20071;-29
2024/01/30 07:03:05;;;;;;;9.00;4.68;;;;;;;12.04;27.54;98074.66;5053359;28;20047;-28
2024/01/30 07:05:31;;;;;;;6.88;2.40;;;;;;;12.16;27.25;98082.34;5053786;28;20381;-29
2024/01/30 07:07:57;;;;;;;4.50;2.22;;;;;;;12.19;27.27;98083.53;5053412;28;20376;-28
2024/01/30 07:10:22;;;;;;;5.38;1.75;;;;;;;12.11;27.41;98084.72;5054002;28;20020;-28
2024/01/30 07:12:47;;;;;;;2.35;1.50;;;;;;;12.16;27.49;98087.78;5053919;28;20477;-28
2024/01/30 07:15:16;;;;;;;3.78;2.55;;;;;;;12.17;27.56;98096.72;5053663;28;20021;-28
2024/01/30 07:17:42;;;;;;;5.75;1.80;;;;;;;12.04;27.76;98084.75;5053753;28;20028;-28
2024/01/30 07:20:09;;;;;;;3.40;1.70;;;;;;;12.18;27.60;98087.41;5053222;28;20466;-29
2024/01/30 07:22:34;;;;;;;3.83;2.00;;;;;;;12.17;27.68;98094.00;5053609;28;20373;-28
2024/01/30 07:25:00;;;;;;;5.18;2.47;;;;;;;12.29;27.93;98090.06;5053635;28;20021;-29
2024/01/30 07:27:25;;;;;;;3.97;1.95;;;;;;;12.13;27.67;98093.25;5053719;28;20098;-29
2024/01/30 07:29:50;;;;;;;3.83;2.15;;;;;;;12.10;27.84;98104.94;5053617;28;20084;-28
2024/01/30 07:32:16;;;;;;;6.93;2.70;;;;;;;11.90;28.39;98107.31;5053705;28;20033;-28
2024/01/30 07:34:41;;;;;;;6.20;2.55;;;;;;;12.28;27.37;98105.59;5053499;28;20017;-28
2024/01/30 07:37:08;;;;;;;5.43;2.25;;;;;;;12.19;27.67;98099.84;5053330;28;20025;-28
2024/01/30 07:39:34;;;;;;;5.53;1.58;;;;;;;12.05;27.86;98108.06;5053450;28;20028;-28
2024/01/30 07:42:00;;;;;;;5.18;1.83;;;;;;;12.12;27.72;98105.28;5052980;28;20020;-29
2024/01/30 07:44:25;;;;;;;3.65;2.60;;;;;;;12.29;27.41;98103.66;5053610;28;20526;-28
2024/01/30 07:46:51;;;;;;;5.90;2.05;;;;;;;12.31;27.64;98110.25;5053449;28;20025;-29
2024/01/30 07:49:16;;;;;;;3.00;1.50;;;;;;;12.32;27.58;98119.97;5053248;28;20056;-28
2024/01/30 07:51:43;;;;;;;2.58;1.70;;;;;;;12.39;27.77;98117.22;5053138;28;20049;-28
2024/01/30 07:54:14;;;;;;;3.45;1.80;;;;;;;12.36;28.06;98118.03;5053408;28;20025;-28
2024/01/30 07:56:40;;;;;;;3.33;1.80;;;;;;;12.35;28.18;98121.91;5061017;28;20109;-28
2024/01/30 07:59:05;;;;;;;3.03;1.80;;;;;;;12.57;28.09;98119.84;5059118;28;20443;-29
2024/01/30 08:01:31;;;;;;;3.15;1.42;;;;;;;12.62;28.05;98121.34;5054991;28;20032;-28
2024/01/30 08:03:56;;;;;;;2.47;1.50;;;;;;;12.49;27.91;98116.38;5059616;28;20067;-27
2024/01/30 08:06:22;;;;;;;3.35;1.90;;;;;;;12.48;28.03;98120.28;5053227;28;20024;-28
2024/01/30 08:08:47;;;;;;;4.55;2.17;;;;;;;12.58;28.20;98126.84;5053237;28;20094;-28
2024/01/30 08:11:12;;;;;;;4.40;2.85;;;;;;;12.51;27.96;98130.34;5053002;28;20017;-28
2024/01/30 08:13:38;;;;;;;5.18;3.30;;;;;;;12.59;27.92;98129.16;5053244;28;20045;-27
2024/01/30 08:16:04;;;;;;;6.50;3.88;;;;;;;12.56;28.40;98126.47;5060831;28;20032;-27
2024/01/30 08:18:29;;;;;;;7.53;4.03;;;;;;;12.42;28.24;98127.31;5053283;28;20062;-28
2024/01/30 08:20:55;;;;;;;8.43;4.05;;;;;;;12.52;28.36;98129.19;5053239;28;20036;-28
2024/01/30 08:23:20;;;;;;;6.40;3.35;;;;;;;12.49;28.39;98129.97;5052946;28;20159;-27
2024/01/30 08:25:46;;;;;;;8.55;3.40;;;;;;;12.43;28.67;98130.81;5052812;28;20021;-27
2024/01/30 08:28:11;;;;;;;5.18;2.92;;;;;;;12.61;29.03;98128.00;5053173;28;20044;-28
2024/01/30 08:30:38;;;;;;;5.88;3.00;;;;;;;12.59;28.53;98131.09;5054917;28;20024;-28
2024/01/30 08:33:04;;;;;;;4.75;2.85;;;;;;;12.64;29.02;98132.63;5056975;28;20021;-27
2024/01/30 08:35:33;;;;;;;4.60;2.80;;;;;;;12.53;28.95;98125.28;5057120;28;20096;-28
2024/01/30 08:37:58;;;;;;;4.53;2.70;;;;;;;12.65;28.93;98134.94;5056433;28;20021;-27
2024/01/30 08:40:24;;;;;;;5.72;3.13;;;;;;;12.63;29.41;98139.22;5056472;28;20461;-27
2024/01/30 08:42:49;;;;;;;6.53;3.15;;;;;;;12.75;29.12;98136.03;5056204;28;20028;-27
2024/01/30 08:45:15;;;;;;;4.60;3.10;;;;;;;12.55;29.38;98138.50;5056601;28;20029;-27
2024/01/30 08:47:40;;;;;;;7.97;3.03;;;;;;;12.66;29.64;98133.78;5056667;28;20021;-28
2024/01/30 08:50:07;;;;;;;4.45;2.83;;;;;;;12.68;29.74;98138.81;5056098;28;20133;-27
2024/01/30 08:52:33;;;;;;;5.55;2.70;;;;;;;12.53;29.83;98138.13;5056821;28;20028;-27
2024/01/30 08:54:59;;;;;;;4.32;2.45;;;;;;;12.64;29.98;98140.78;5056113;28;20428;-27
2024/01/30 08:57:28;;;;;;;5.43;2.90;;;;;;;12.79;30.24;98144.97;5048042;28;20044;-27
2024/01/30 08:59:54;;;;;;;6.30;3.22;;;;;;;12.77;29.81;98141.88;5056249;28;20025;-27
2024/01/30 09:02:19;;;;;;;6.13;3.50;;;;;;;12.82;30.25;98138.75;5055701;28;20055;-27
2024/01/30 09:04:45;;;;;;;7.85;3.72;;;;;;;12.70;30.94;98141.94;5056460;28;20029;-27
2024/01/30 09:07:10;;;;;;;4.80;3.30;;;;;;;12.91;30.27;98142.56;5055837;28;20385;-28
2024/01/30 09:09:39;;;;;;;9.18;3.67;;;;;;;12.94;30.39;98151.88;5056233;28;20338;-28
2024/01/30 09:12:07;;;;;;;6.97;3.80;;;;;;;13.02;30.27;98145.19;5055730;28;20016;-28
2024/01/30 09:14:33;;;;;;;7.63;3.78;;;;;;;12.90;30.80;98154.63;5055746;28;20025;-28
2024/01/30 09:16:58;;;;;;;16.83;8.02;;;;;;;13.00;30.99;98157.66;5047805;28;20100;-28
2024/01/30 09:19:24;;;;;;;19.98;6.43;;;;;;;13.08;31.06;98159.19;5060450;28;20024;-27
2024/01/30 09:21:49;;;;;;;8.57;4.93;;;;;;;13.02;31.48;98152.59;5062941;28;20151;-29
2024/01/30 09:24:15;;;;;;;10.65;5.88;;;;;;;13.34;31.22;98163.28;5055527;28;20495;-28
2024/01/30 09:26:40;;;;;;;9.60;5.25;;;;;;;13.58;31.14;98163.06;5055502;28;20024;-28
2024/01/30 09:29:05;;;;;;;9.63;4.95;;;;;;;13.72;31.15;98158.66;5055498;28;20021;-27
2024/01/30 09:31:31;;;;;;;9.90;5.95;;;;;;;13.83;30.99;98168.28;5055343;28;20066;-28
2024/01/30 09:33:57;;;;;;;12.13;6.72;;;;;;;13.96;31.22;98166.59;5063219;28;20108;-28
2024/01/30 09:36:22;;;;;;;9.27;5.65;;;;;;;14.11;31.02;98172.63;5055874;28;20013;-28
2024/01/30 09:38:48;;;;;;;11.52;6.90;;;;;;;14.13;31.29;98175.72;5055705;28;20025;-28
2024/01/30 09:41:15;;;;;;;10.90;6.78;;;;;;;14.54;30.38;98172.94;5054424;28;20023;-28
2024/01/30 09:43:48;;;;;;;11.27;7.55;;;;;;;14.72;30.14;98167.97;5055286;28;20461;-28
2024/01/30 09:46:16;;;;;;;9.50;6.82;;;;;;;14.97;30.02;98173.09;5055356;28;20100;-28
2024/01/30 09:48:42;;;;;;;12.07;7.70;;;;;;;15.18;29.78;98176.69;5055253;28;20025;-28
2024/01/30 09:51:11;;;;;;;8.13;5.55;;;;;;;15.27;29.52;98174.22;5055249;28;20094;-28
2024/01/30 09:53:37;;;;;;;10.18;6.70;;;;;;;15.45;29.33;98175.44;5062827;28;20049;-28
2024/01/30 09:56:04;;;;;;;8.52;5.20;;;;;;;15.04;29.78;98177.69;5055107;28;20075;-28
2024/01/30 09:58:29;;;;;;;8.13;5.40;;;;;;;15.51;28.80;98183.19;5055661;28;20411;-28
2024/01/30 10:00:55;;;;;;;7.47;5.25;;;;;;;15.37;29.20;98179.50;5054835;28;20020;-28
2024/01/30 10:03:20;;;;;;;7.93;5.40;;;;;;;15.59;29.46;98174.47;5054597;28;20048;-30
2024/01/30 10:05:52;;;;;;;8.90;5.45;;;;;;;15.40;29.99;98178.69;5055010;28;20099;-28
2024/01/30 10:08:21;;;;;;;7.82;5.50;;;;;;;15.49;30.27;98174.63;5054838;28;20023;-28
2024/01/30 10:10:49;;;;;;;6.90;4.43;;;;;;;15.41;29.90;98174.75;5055004;28;20024;-29
2024/01/30 10:13:16;;;;;;;14.63;9.57;;;;;;;15.35;29.97;98168.22;5054894;28;20079;-28
2024/01/30 10:15:41;;;;;;;12.18;6.85;;;;;;;15.04;30.95;98172.22;5036955;28;20392;-28
2024/01/30 10:18:07;;;;;;;17.45;10.70;;;;;;;15.10;30.62;98170.56;5051045;28;20059;-28
2024/01/30 10:20:33;;;;;;;20.35;12.52;;;;;;;15.06;30.44;98172.59;5054525;28;20024;-28
2024/01/30 10:22:59;;;;;;;20.48;11.18;;;;;;;14.93;30.66;98182.53;5061587;28;20551;-28
2024/01/30 10:25:26;;;;;;;14.30;9.20;;;;;;;14.66;31.05;98174.31;5059184;28;20107;-28
2024/01/30 10:27:58;;;;;;;14.68;7.97;;;;;;;14.63;30.57;98162.25;5038820;28;20029;-28
2024/01/30 10:30:24;;;;;;;14.73;8.03;;;;;;;14.63;30.89;98165.00;5054347;28;20055;-28
2024/01/30 10:32:51;;;;;;;13.35;7.65;;;;;;;14.58;31.04;98165.47;5050758;28;20120;-28
2024/01/30 10:35:16;;;;;;;13.93;7.72;;;;;;;14.47;31.65;98164.03;5061985;28;20017;-28
2024/01/30 10:37:43;;;;;;;11.13;6.45;;;;;;;14.31;31.63;98156.44;5054552;28;20066;-28
2024/01/30 10:40:13;;;;;;;11.40;6.43;;;;;;;14.36;31.38;98151.28;5054408;28;20055;-29
2024/01/30 10:42:45;;;;;;;9.88;5.75;;;;;;;14.29;31.73;98156.06;5054629;28;20031;-28
2024/01/30 10:45:12;;;;;;;11.02;6.43;;;;;;;14.30;32.16;98158.38;5054112;28;20477;-28
2024/01/30 10:47:40;;;;;;;10.65;5.68;;;;;;;14.23;31.94;98157.69;5054205;28;20028;-28
2024/01/30 10:50:08;;;;;;;8.98;5.40;;;;;;;14.08;32.05;98148.13;5035886;28;20024;-28
2024/01/30 10:52:34;;;;;;;9.77;5.05;;;;;;;14.26;31.58;98144.00;5054427;28;20028;-28
2024/01/30 10:55:00;;;;;;;7.82;5.07;;;;;;;14.02;31.40;98148.56;5054163;28;20017;-28
2024/01/30 10:57:27;;;;;;;9.20;5.30;;;;;;;13.77;31.63;98142.63;5054993;28;20032;-29
2024/01/30 10:59:55;;;;;;;6.93;4.55;;;;;;;13.95;32.15;98145.94;5053659;28;20480;-28
2024/01/30 11:02:21;;;;;;;8.05;5.15;;;;;;;14.09;32.10;98146.97;5053858;28;20489;-28
2024/01/30 11:04:48;;;;;;;8.70;4.63;;;;;;;14.07;32.02;98135.69;5062588;28;20111;-29
2024/01/30 11:07:27;;;;;;;8.77;4.97;;;;;;;13.82;32.38;98136.72;5058393;28;20021;-28
2024/01/30 11:10:02;;;;;;;12.23;4.70;;;;;;;13.95;32.65;98132.28;5061559;28;20029;-28
2024/01/30 11:12:30;;;;;;;8.15;5.00;;;;;;;13.97;32.50;98131.91;5053897;28;20067;-28
2024/01/30 11:15:10;;;;;;;7.03;4.38;;;;;;;13.91;33.12;98136.22;5061053;28;20013;-29
2024/01/30 11:17:41;;;;;;;9.00;4.90;;;;;;;13.84;33.54;98128.16;5053673;28;20020;-28
2024/01/30 11:20:31;;;;;;;8.38;4.50;;;;;;;14.03;32.69;98132.97;5053550;28;20025;-28
2024/01/30 11:22:57;;;;;;;7.18;4.38;;;;;;;13.96;32.73;98122.16;5053222;28;20127;-28
2024/01/30 11:25:24;;;;;;;7.78;4.53;;;;;;;13.84;32.24;98120.75;5053671;28;20021;-28
2024/01/30 11:27:51;;;;;;;6.32;4.28;;;;;;;13.89;33.14;98123.00;5043108;28;20040;-28